NKS1385 KMYR-KLGA
Flight info
| Callsign | NKS1385 |
|---|---|
| Flight time | 1h 18m |
| Altitude | 35000 |
| Route | CRE CHKLZ ZORDO Q107 HURTS PROUD2 |
| Aircraft | A321/M-SDE3FGHIRWY/LB1 |
Departure
| Time | 2026-04-24 00:56 |
|---|---|
| Airport | Myrtle Beach International Airport (KMYR) |
Arrival
| Time | 2026-04-24 02:15 |
|---|---|
| Airport | LaGuardia Airport (KLGA) |
| Time | Latitude | Longitude | Altitude | Speed | Heading |
|---|---|---|---|---|---|
| 2026-04-24 00:41 | 33.67974 | -78.92435 | 32 ft | 0 kts | 37° |
| 2026-04-24 00:47 | 33.67963 | -78.92444 | 30 ft | 3 kts | 34° |
| 2026-04-24 00:47 | 33.67946 | -78.92457 | 28 ft | 3 kts | 24° |
| 2026-04-24 00:48 | 33.67927 | -78.92465 | 31 ft | 3 kts | 8° |
| 2026-04-24 00:48 | 33.67908 | -78.92467 | 31 ft | 3 kts | 353° |
| 2026-04-24 00:48 | 33.67894 | -78.92463 | 29 ft | 3 kts | 304° |
| 2026-04-24 00:48 | 33.67891 | -78.92450 | 30 ft | 3 kts | 248° |
| 2026-04-24 00:49 | 33.67899 | -78.92428 | 31 ft | 3 kts | 247° |
| 2026-04-24 00:49 | 33.67905 | -78.92410 | 30 ft | 0 kts | 258° |
| 2026-04-24 00:51 | 33.67903 | -78.92418 | 31 ft | 3 kts | 258° |
| 2026-04-24 00:51 | 33.67895 | -78.92466 | 30 ft | 8 kts | 261° |
| 2026-04-24 00:51 | 33.67936 | -78.92532 | 31 ft | 13 kts | 340° |
| 2026-04-24 00:51 | 33.68041 | -78.92565 | 32 ft | 18 kts | 347° |
| 2026-04-24 00:52 | 33.68160 | -78.92593 | 32 ft | 14 kts | 342° |
| 2026-04-24 00:52 | 33.68203 | -78.92681 | 32 ft | 13 kts | 329° |
| 2026-04-24 00:52 | 33.68320 | -78.92717 | 32 ft | 20 kts | 349° |
| 2026-04-24 00:52 | 33.68459 | -78.92751 | 32 ft | 20 kts | 348° |
| 2026-04-24 00:53 | 33.68592 | -78.92784 | 32 ft | 19 kts | 348° |
| 2026-04-24 00:53 | 33.68721 | -78.92816 | 32 ft | 18 kts | 347° |
| 2026-04-24 00:53 | 33.68838 | -78.92850 | 32 ft | 16 kts | 347° |
| 2026-04-24 00:53 | 33.68943 | -78.92868 | 32 ft | 13 kts | 5° |
| 2026-04-24 00:54 | 33.69028 | -78.92855 | 32 ft | 15 kts | 355° |
| 2026-04-24 00:54 | 33.69129 | -78.92877 | 32 ft | 13 kts | 348° |
| 2026-04-24 00:54 | 33.69206 | -78.92897 | 32 ft | 12 kts | 348° |
| 2026-04-24 00:54 | 33.69274 | -78.92924 | 32 ft | 9 kts | 308° |
| 2026-04-24 00:55 | 33.69264 | -78.93017 | 32 ft | 13 kts | 257° |
| 2026-04-24 00:55 | 33.69248 | -78.93122 | 33 ft | 9 kts | 260° |
| 2026-04-24 00:55 | 33.69228 | -78.93143 | 33 ft | 3 kts | 179° |
| 2026-04-24 00:55 | 33.69222 | -78.93142 | 33 ft | 2 kts | 174° |
| 2026-04-24 00:56 | 33.69053 | -78.93103 | 35 ft | 59 kts | 168° |
| 2026-04-24 00:56 | 33.68429 | -78.92946 | 31 ft | 122 kts | 168° |
| 2026-04-24 00:56 | 33.67428 | -78.92699 | 54 ft | 167 kts | 169° |
| 2026-04-24 00:56 | 33.66279 | -78.92468 | 702 ft | 164 kts | 176° |
| 2026-04-24 00:57 | 33.65164 | -78.92201 | 1370 ft | 170 kts | 163° |
| 2026-04-24 00:57 | 33.64199 | -78.91180 | 1672 ft | 207 kts | 124° |
| 2026-04-24 00:57 | 33.64776 | -78.87489 | 2053 ft | 275 kts | 48° |
| 2026-04-24 00:58 | 33.66283 | -78.85969 | 2557 ft | 282 kts | 34° |
| 2026-04-24 00:58 | 33.67936 | -78.84704 | 3379 ft | 282 kts | 30° |
| 2026-04-24 00:58 | 33.69611 | -78.83474 | 4166 ft | 282 kts | 30° |
| 2026-04-24 00:58 | 33.71258 | -78.82194 | 4931 ft | 283 kts | 33° |
| 2026-04-24 00:59 | 33.72816 | -78.80804 | 5816 ft | 278 kts | 35° |
| 2026-04-24 00:59 | 33.74350 | -78.79356 | 6465 ft | 282 kts | 36° |
| 2026-04-24 00:59 | 33.75861 | -78.77889 | 7151 ft | 284 kts | 37° |
| 2026-04-24 00:59 | 33.77391 | -78.76386 | 7849 ft | 285 kts | 36° |
| 2026-04-24 01:00 | 33.78927 | -78.74879 | 8553 ft | 286 kts | 37° |
| 2026-04-24 01:00 | 33.80473 | -78.73367 | 9268 ft | 287 kts | 37° |
| 2026-04-24 01:00 | 33.81915 | -78.71698 | 9965 ft | 290 kts | 49° |
| 2026-04-24 01:00 | 33.83201 | -78.69768 | 10331 ft | 305 kts | 49° |
| 2026-04-24 01:01 | 33.84575 | -78.67706 | 10461 ft | 326 kts | 49° |
| 2026-04-24 01:01 | 33.86039 | -78.65512 | 10588 ft | 347 kts | 49° |
| 2026-04-24 01:01 | 33.87588 | -78.63186 | 10703 ft | 365 kts | 49° |
| 2026-04-24 01:01 | 33.89213 | -78.60742 | 10879 ft | 381 kts | 50° |
| 2026-04-24 01:02 | 33.90881 | -78.58227 | 11339 ft | 387 kts | 50° |
| 2026-04-24 01:02 | 33.92573 | -78.55674 | 11858 ft | 391 kts | 50° |
| 2026-04-24 01:02 | 33.94282 | -78.53104 | 12415 ft | 395 kts | 50° |
| 2026-04-24 01:02 | 33.96005 | -78.50501 | 12964 ft | 399 kts | 51° |
| 2026-04-24 01:03 | 33.97740 | -78.47873 | 13513 ft | 403 kts | 51° |
| 2026-04-24 01:03 | 33.99489 | -78.45220 | 14056 ft | 407 kts | 51° |
| 2026-04-24 01:03 | 34.01235 | -78.42572 | 14546 ft | 411 kts | 51° |
| 2026-04-24 01:03 | 34.03023 | -78.39862 | 15043 ft | 415 kts | 51° |
| 2026-04-24 01:04 | 34.04829 | -78.37125 | 15543 ft | 419 kts | 51° |
| 2026-04-24 01:04 | 34.06654 | -78.34362 | 16033 ft | 423 kts | 51° |
| 2026-04-24 01:04 | 34.08501 | -78.31571 | 16528 ft | 427 kts | 51° |
| 2026-04-24 01:04 | 34.10360 | -78.28756 | 16993 ft | 431 kts | 51° |
| 2026-04-24 01:05 | 34.12234 | -78.25914 | 17446 ft | 435 kts | 51° |
| 2026-04-24 01:05 | 34.14123 | -78.23047 | 17901 ft | 438 kts | 51° |
| 2026-04-24 01:05 | 34.16025 | -78.20153 | 18333 ft | 442 kts | 51° |
| 2026-04-24 01:05 | 34.17945 | -78.17236 | 18696 ft | 445 kts | 51° |
| 2026-04-24 01:06 | 34.19245 | -78.15259 | 18944 ft | 447 kts | 51° |
| 2026-04-24 01:06 | 34.21159 | -78.12350 | 19308 ft | 449 kts | 51° |
| 2026-04-24 01:06 | 34.23128 | -78.09348 | 19693 ft | 451 kts | 51° |
| 2026-04-24 01:06 | 34.25059 | -78.06402 | 20064 ft | 454 kts | 51° |
| 2026-04-24 01:07 | 34.27023 | -78.03403 | 20436 ft | 456 kts | 51° |
| 2026-04-24 01:07 | 34.28994 | -78.00380 | 20807 ft | 458 kts | 51° |
| 2026-04-24 01:07 | 34.31012 | -77.97385 | 21171 ft | 460 kts | 46° |
| 2026-04-24 01:07 | 34.33373 | -77.94770 | 21527 ft | 461 kts | 36° |
| 2026-04-24 01:08 | 34.36075 | -77.92685 | 21890 ft | 462 kts | 26° |
| 2026-04-24 01:08 | 34.39044 | -77.91197 | 22241 ft | 461 kts | 15° |
| 2026-04-24 01:08 | 34.42212 | -77.90329 | 22604 ft | 461 kts | 6° |
| 2026-04-24 01:08 | 34.45393 | -77.89782 | 22967 ft | 463 kts | 6° |
| 2026-04-24 01:09 | 34.48548 | -77.89236 | 23324 ft | 465 kts | 6° |
| 2026-04-24 01:09 | 34.51757 | -77.88675 | 23650 ft | 467 kts | 6° |
| 2026-04-24 01:09 | 34.54978 | -77.88109 | 23945 ft | 469 kts | 6° |
| 2026-04-24 01:09 | 34.58207 | -77.87541 | 24252 ft | 470 kts | 6° |
| 2026-04-24 01:10 | 34.62549 | -77.86772 | 24675 ft | 472 kts | 7° |
| 2026-04-24 01:10 | 34.64706 | -77.86390 | 24887 ft | 473 kts | 7° |
| 2026-04-24 01:10 | 34.67969 | -77.85814 | 25200 ft | 475 kts | 6° |
| 2026-04-24 01:10 | 34.71244 | -77.85238 | 25497 ft | 476 kts | 6° |
| 2026-04-24 01:11 | 34.74525 | -77.84659 | 25785 ft | 477 kts | 6° |
| 2026-04-24 01:11 | 34.77814 | -77.84079 | 26168 ft | 476 kts | 6° |
| 2026-04-24 01:11 | 34.81082 | -77.83503 | 26588 ft | 474 kts | 6° |
| 2026-04-24 01:11 | 34.84340 | -77.82932 | 27001 ft | 472 kts | 6° |
| 2026-04-24 01:12 | 34.87570 | -77.82226 | 27402 ft | 472 kts | 12° |
| 2026-04-24 01:12 | 34.90734 | -77.81168 | 27788 ft | 471 kts | 13° |
| 2026-04-24 01:12 | 34.93883 | -77.80102 | 28197 ft | 469 kts | 13° |
| 2026-04-24 01:12 | 34.97026 | -77.79038 | 28616 ft | 468 kts | 13° |
| 2026-04-24 01:13 | 35.00155 | -77.77977 | 29014 ft | 466 kts | 13° |
| 2026-04-24 01:13 | 35.03274 | -77.76921 | 29413 ft | 465 kts | 13° |
| 2026-04-24 01:13 | 35.06387 | -77.75869 | 29819 ft | 463 kts | 13° |
| 2026-04-24 01:13 | 35.09488 | -77.74820 | 30201 ft | 461 kts | 13° |
| 2026-04-24 01:14 | 35.12581 | -77.73775 | 30522 ft | 460 kts | 13° |
| 2026-04-24 01:14 | 35.15663 | -77.72731 | 30834 ft | 460 kts | 13° |
| 2026-04-24 01:14 | 35.18703 | -77.71697 | 31132 ft | 459 kts | 13° |
| 2026-04-24 01:14 | 35.21816 | -77.70635 | 31443 ft | 458 kts | 13° |
| 2026-04-24 01:15 | 35.24840 | -77.69603 | 31747 ft | 457 kts | 13° |
| 2026-04-24 01:15 | 35.27903 | -77.68557 | 32047 ft | 457 kts | 13° |
| 2026-04-24 01:15 | 35.30965 | -77.67513 | 32348 ft | 456 kts | 13° |
| 2026-04-24 01:15 | 35.34020 | -77.66472 | 32651 ft | 455 kts | 13° |
| 2026-04-24 01:16 | 35.37068 | -77.65433 | 32943 ft | 454 kts | 13° |
| 2026-04-24 01:16 | 35.40112 | -77.64397 | 33233 ft | 454 kts | 13° |
| 2026-04-24 01:16 | 35.43149 | -77.63364 | 33521 ft | 453 kts | 13° |
| 2026-04-24 01:16 | 35.46183 | -77.62329 | 33808 ft | 452 kts | 13° |
| 2026-04-24 01:17 | 35.49213 | -77.61291 | 34078 ft | 451 kts | 13° |
| 2026-04-24 01:17 | 35.52239 | -77.60253 | 34323 ft | 450 kts | 13° |
| 2026-04-24 01:17 | 35.55249 | -77.59220 | 34558 ft | 449 kts | 13° |
| 2026-04-24 01:17 | 35.58256 | -77.58186 | 34811 ft | 448 kts | 13° |
| 2026-04-24 01:18 | 35.61262 | -77.57151 | 34959 ft | 448 kts | 13° |
| 2026-04-24 01:18 | 35.67284 | -77.55081 | 34988 ft | 450 kts | 13° |
| 2026-04-24 01:19 | 35.73311 | -77.53010 | 34988 ft | 450 kts | 13° |
| 2026-04-24 01:19 | 35.79348 | -77.50985 | 34988 ft | 449 kts | 12° |
| 2026-04-24 01:20 | 35.85355 | -77.49046 | 34988 ft | 449 kts | 11° |
| 2026-04-24 01:20 | 35.91397 | -77.47106 | 34994 ft | 449 kts | 12° |
| 2026-04-24 01:21 | 35.97437 | -77.45135 | 34999 ft | 449 kts | 12° |
| 2026-04-24 01:21 | 36.03474 | -77.43147 | 35002 ft | 449 kts | 12° |
| 2026-04-24 01:22 | 36.09508 | -77.41159 | 35004 ft | 448 kts | 12° |
| 2026-04-24 01:22 | 36.15540 | -77.39189 | 35003 ft | 448 kts | 11° |
| 2026-04-24 01:23 | 36.21564 | -77.37217 | 35003 ft | 448 kts | 11° |
| 2026-04-24 01:23 | 36.27584 | -77.35232 | 35008 ft | 447 kts | 11° |
| 2026-04-24 01:24 | 36.33603 | -77.33237 | 35006 ft | 447 kts | 12° |
| 2026-04-24 01:24 | 36.39615 | -77.31245 | 35006 ft | 447 kts | 11° |
| 2026-04-24 01:25 | 36.45618 | -77.29270 | 35003 ft | 446 kts | 11° |
| 2026-04-24 01:25 | 36.51582 | -77.27295 | 35001 ft | 446 kts | 11° |
| 2026-04-24 01:26 | 36.57576 | -77.25293 | 35000 ft | 446 kts | 11° |
| 2026-04-24 01:26 | 36.63565 | -77.23307 | 35004 ft | 445 kts | 11° |
| 2026-04-24 01:27 | 36.69550 | -77.21316 | 34998 ft | 445 kts | 11° |
| 2026-04-24 01:27 | 36.75533 | -77.19313 | 34998 ft | 445 kts | 11° |
| 2026-04-24 01:28 | 36.81507 | -77.17314 | 34993 ft | 444 kts | 11° |
| 2026-04-24 01:28 | 36.87472 | -77.15320 | 34998 ft | 444 kts | 11° |
| 2026-04-24 01:29 | 36.93435 | -77.13321 | 35001 ft | 443 kts | 11° |
| 2026-04-24 01:29 | 36.99353 | -77.11330 | 35003 ft | 443 kts | 11° |
| 2026-04-24 01:30 | 37.05305 | -77.09330 | 35005 ft | 443 kts | 11° |
| 2026-04-24 01:30 | 37.11254 | -77.07331 | 35001 ft | 442 kts | 11° |
| 2026-04-24 01:31 | 37.17200 | -77.05333 | 34999 ft | 442 kts | 11° |
| 2026-04-24 01:31 | 37.23136 | -77.03328 | 34996 ft | 442 kts | 11° |
| 2026-04-24 01:32 | 37.29068 | -77.01311 | 34989 ft | 441 kts | 11° |
| 2026-04-24 01:32 | 37.34992 | -76.99304 | 34990 ft | 441 kts | 11° |
| 2026-04-24 01:33 | 37.40922 | -76.97286 | 34994 ft | 441 kts | 11° |
| 2026-04-24 01:33 | 37.46794 | -76.95035 | 35000 ft | 445 kts | 19° |
| 2026-04-24 01:34 | 37.52318 | -76.91444 | 35001 ft | 447 kts | 23° |
| 2026-04-24 01:34 | 37.57816 | -76.87772 | 35002 ft | 447 kts | 23° |
| 2026-04-24 01:35 | 37.63315 | -76.84114 | 35002 ft | 447 kts | 23° |
| 2026-04-24 01:35 | 37.68812 | -76.80444 | 34996 ft | 447 kts | 23° |
| 2026-04-24 01:36 | 37.74274 | -76.76796 | 34990 ft | 447 kts | 23° |
| 2026-04-24 01:36 | 37.79762 | -76.73116 | 34988 ft | 446 kts | 23° |
| 2026-04-24 01:37 | 37.85249 | -76.69439 | 34993 ft | 446 kts | 23° |
| 2026-04-24 01:37 | 37.90752 | -76.65805 | 34987 ft | 445 kts | 21° |
| 2026-04-24 01:38 | 37.96291 | -76.62314 | 34982 ft | 445 kts | 21° |
| 2026-04-24 01:38 | 38.01848 | -76.58843 | 34975 ft | 445 kts | 21° |
| 2026-04-24 01:39 | 38.07386 | -76.55345 | 34978 ft | 445 kts | 21° |
| 2026-04-24 01:39 | 38.12920 | -76.51819 | 34981 ft | 445 kts | 21° |
| 2026-04-24 01:40 | 38.18451 | -76.48280 | 34978 ft | 445 kts | 21° |
| 2026-04-24 01:40 | 38.23978 | -76.44753 | 34968 ft | 445 kts | 21° |
| 2026-04-24 01:41 | 38.29459 | -76.41085 | 34969 ft | 449 kts | 28° |
| 2026-04-24 01:41 | 38.34481 | -76.36275 | 34976 ft | 452 kts | 32° |
| 2026-04-24 01:42 | 38.39478 | -76.31397 | 34975 ft | 452 kts | 31° |
| 2026-04-24 01:42 | 38.44477 | -76.26514 | 34974 ft | 453 kts | 31° |
| 2026-04-24 01:43 | 38.49471 | -76.21618 | 34972 ft | 453 kts | 31° |
| 2026-04-24 01:43 | 38.54462 | -76.16716 | 34977 ft | 453 kts | 31° |
| 2026-04-24 01:44 | 38.59452 | -76.11803 | 34742 ft | 452 kts | 31° |
| 2026-04-24 01:44 | 38.61942 | -76.09350 | 34516 ft | 452 kts | 31° |
| 2026-04-24 01:44 | 38.64442 | -76.06908 | 34280 ft | 452 kts | 31° |
| 2026-04-24 01:44 | 38.66970 | -76.04508 | 34042 ft | 452 kts | 30° |
| 2026-04-24 01:45 | 38.69517 | -76.02143 | 33779 ft | 453 kts | 30° |
| 2026-04-24 01:45 | 38.72075 | -75.99791 | 33514 ft | 453 kts | 29° |
| 2026-04-24 01:45 | 38.74639 | -75.97431 | 33248 ft | 455 kts | 30° |
| 2026-04-24 01:45 | 38.77210 | -75.95050 | 32989 ft | 456 kts | 30° |
| 2026-04-24 01:46 | 38.79777 | -75.92657 | 32439 ft | 458 kts | 30° |
| 2026-04-24 01:46 | 38.82374 | -75.90229 | 31491 ft | 464 kts | 30° |
| 2026-04-24 01:46 | 38.84995 | -75.87771 | 30624 ft | 468 kts | 31° |
| 2026-04-24 01:46 | 38.87648 | -75.85281 | 29550 ft | 476 kts | 31° |
| 2026-04-24 01:47 | 38.90329 | -75.82754 | 28523 ft | 480 kts | 31° |
| 2026-04-24 01:47 | 38.93024 | -75.80207 | 27449 ft | 484 kts | 31° |
| 2026-04-24 01:47 | 38.95753 | -75.77629 | 26383 ft | 488 kts | 32° |
| 2026-04-24 01:47 | 38.98476 | -75.75052 | 26048 ft | 485 kts | 32° |
| 2026-04-24 01:48 | 39.01197 | -75.72477 | 25802 ft | 486 kts | 32° |
| 2026-04-24 01:48 | 39.03921 | -75.69900 | 25565 ft | 487 kts | 31° |
| 2026-04-24 01:48 | 39.06655 | -75.67311 | 25323 ft | 488 kts | 31° |
| 2026-04-24 01:48 | 39.09355 | -75.64755 | 25084 ft | 488 kts | 31° |
| 2026-04-24 01:49 | 39.12091 | -75.62161 | 24852 ft | 489 kts | 31° |
| 2026-04-24 01:49 | 39.14827 | -75.59561 | 24613 ft | 489 kts | 31° |
| 2026-04-24 01:49 | 39.17564 | -75.56955 | 24384 ft | 490 kts | 31° |
| 2026-04-24 01:49 | 39.20307 | -75.54339 | 24160 ft | 490 kts | 31° |
| 2026-04-24 01:50 | 39.23047 | -75.51725 | 23934 ft | 489 kts | 31° |
| 2026-04-24 01:50 | 39.25793 | -75.49155 | 23705 ft | 487 kts | 30° |
| 2026-04-24 01:50 | 39.28565 | -75.46657 | 23475 ft | 485 kts | 29° |
| 2026-04-24 01:50 | 39.31350 | -75.44214 | 23211 ft | 483 kts | 28° |
| 2026-04-24 01:51 | 39.34132 | -75.41803 | 22944 ft | 480 kts | 28° |
| 2026-04-24 01:51 | 39.36899 | -75.39400 | 22684 ft | 478 kts | 28° |
| 2026-04-24 01:51 | 39.39650 | -75.36988 | 22432 ft | 476 kts | 29° |
| 2026-04-24 01:51 | 39.42373 | -75.34578 | 22174 ft | 474 kts | 29° |
| 2026-04-24 01:52 | 39.45082 | -75.32164 | 21918 ft | 471 kts | 29° |
| 2026-04-24 01:52 | 39.47698 | -75.29821 | 21669 ft | 469 kts | 29° |
| 2026-04-24 01:52 | 39.49471 | -75.28229 | 21502 ft | 467 kts | 29° |
| 2026-04-24 01:52 | 39.52127 | -75.25832 | 21242 ft | 466 kts | 29° |
| 2026-04-24 01:53 | 39.54757 | -75.23405 | 20992 ft | 464 kts | 30° |
| 2026-04-24 01:53 | 39.57366 | -75.20956 | 20620 ft | 462 kts | 30° |
| 2026-04-24 01:53 | 39.59946 | -75.18507 | 20114 ft | 457 kts | 30° |
| 2026-04-24 01:53 | 39.62500 | -75.16077 | 19615 ft | 453 kts | 30° |
| 2026-04-24 01:54 | 39.65025 | -75.13679 | 19187 ft | 444 kts | 30° |
| 2026-04-24 01:54 | 39.67462 | -75.11365 | 19080 ft | 425 kts | 29° |
| 2026-04-24 01:54 | 39.69829 | -75.09194 | 18942 ft | 408 kts | 27° |
| 2026-04-24 01:54 | 39.72143 | -75.07177 | 18842 ft | 393 kts | 26° |
| 2026-04-24 01:55 | 39.74397 | -75.05272 | 18727 ft | 379 kts | 25° |
| 2026-04-24 01:55 | 39.76580 | -75.03443 | 18608 ft | 366 kts | 25° |
| 2026-04-24 01:55 | 39.78682 | -75.01673 | 18497 ft | 354 kts | 25° |
| 2026-04-24 01:55 | 39.80709 | -74.99948 | 18384 ft | 342 kts | 25° |
| 2026-04-24 01:56 | 39.82662 | -74.98272 | 18206 ft | 333 kts | 25° |
| 2026-04-24 01:56 | 39.84577 | -74.96622 | 17852 ft | 328 kts | 25° |
| 2026-04-24 01:56 | 39.86466 | -74.94976 | 17469 ft | 326 kts | 26° |
| 2026-04-24 01:56 | 39.88302 | -74.93332 | 17095 ft | 323 kts | 26° |
| 2026-04-24 01:57 | 39.90161 | -74.91640 | 16710 ft | 321 kts | 26° |
| 2026-04-24 01:57 | 39.91937 | -74.89957 | 16335 ft | 321 kts | 32° |
| 2026-04-24 01:57 | 39.93549 | -74.87875 | 15857 ft | 322 kts | 39° |
| 2026-04-24 01:57 | 39.95040 | -74.85722 | 15110 ft | 317 kts | 39° |
| 2026-04-24 01:58 | 39.96489 | -74.83634 | 14426 ft | 312 kts | 39° |
| 2026-04-24 01:58 | 39.97952 | -74.81533 | 13744 ft | 306 kts | 39° |
| 2026-04-24 01:58 | 39.99374 | -74.79495 | 12971 ft | 302 kts | 39° |
| 2026-04-24 01:58 | 40.00766 | -74.77506 | 12211 ft | 299 kts | 39° |
| 2026-04-24 01:59 | 40.02163 | -74.75516 | 11542 ft | 293 kts | 39° |
| 2026-04-24 01:59 | 40.03527 | -74.73566 | 11246 ft | 293 kts | 39° |
| 2026-04-24 01:59 | 40.04900 | -74.71606 | 10911 ft | 293 kts | 39° |
| 2026-04-24 01:59 | 40.06269 | -74.69644 | 10595 ft | 292 kts | 39° |
| 2026-04-24 02:00 | 40.07631 | -74.67686 | 10282 ft | 291 kts | 39° |
| 2026-04-24 02:00 | 40.08990 | -74.65732 | 9974 ft | 290 kts | 39° |
| 2026-04-24 02:00 | 40.10340 | -74.63788 | 9852 ft | 289 kts | 39° |
| 2026-04-24 02:00 | 40.11698 | -74.61836 | 9864 ft | 291 kts | 39° |
| 2026-04-24 02:01 | 40.13059 | -74.59880 | 9872 ft | 291 kts | 39° |
| 2026-04-24 02:01 | 40.14419 | -74.57921 | 9868 ft | 291 kts | 39° |
| 2026-04-24 02:01 | 40.15778 | -74.55963 | 9869 ft | 291 kts | 39° |
| 2026-04-24 02:01 | 40.17136 | -74.54006 | 9868 ft | 291 kts | 39° |
| 2026-04-24 02:02 | 40.18494 | -74.52049 | 9867 ft | 291 kts | 39° |
| 2026-04-24 02:02 | 40.19852 | -74.50092 | 9870 ft | 291 kts | 39° |
| 2026-04-24 02:02 | 40.21235 | -74.48175 | 9865 ft | 289 kts | 37° |
| 2026-04-24 02:02 | 40.22663 | -74.46334 | 9872 ft | 288 kts | 35° |
| 2026-04-24 02:03 | 40.25559 | -74.42729 | 9870 ft | 287 kts | 34° |
| 2026-04-24 02:03 | 40.27011 | -74.40926 | 9873 ft | 288 kts | 34° |
| 2026-04-24 02:03 | 40.28457 | -74.39121 | 9869 ft | 287 kts | 35° |
| 2026-04-24 02:04 | 40.29903 | -74.37306 | 9708 ft | 287 kts | 34° |
| 2026-04-24 02:04 | 40.31376 | -74.35559 | 9433 ft | 284 kts | 32° |
| 2026-04-24 02:04 | 40.32876 | -74.33898 | 9149 ft | 282 kts | 31° |
| 2026-04-24 02:04 | 40.34386 | -74.32267 | 8866 ft | 281 kts | 31° |
| 2026-04-24 02:05 | 40.35894 | -74.30646 | 8588 ft | 280 kts | 31° |
| 2026-04-24 02:05 | 40.37400 | -74.29022 | 8314 ft | 280 kts | 31° |
| 2026-04-24 02:05 | 40.38885 | -74.27411 | 8040 ft | 280 kts | 32° |
| 2026-04-24 02:05 | 40.40379 | -74.25781 | 7742 ft | 279 kts | 32° |
| 2026-04-24 02:06 | 40.41871 | -74.24144 | 7484 ft | 279 kts | 33° |
| 2026-04-24 02:06 | 40.43355 | -74.22510 | 7216 ft | 279 kts | 33° |
| 2026-04-24 02:06 | 40.44837 | -74.20873 | 6951 ft | 278 kts | 33° |
| 2026-04-24 02:06 | 40.46313 | -74.19240 | 6682 ft | 277 kts | 33° |
| 2026-04-24 02:07 | 40.47783 | -74.17615 | 6423 ft | 276 kts | 34° |
| 2026-04-24 02:07 | 40.49255 | -74.15989 | 6149 ft | 276 kts | 34° |
| 2026-04-24 02:07 | 40.50701 | -74.14391 | 5886 ft | 274 kts | 34° |
| 2026-04-24 02:07 | 40.52170 | -74.12767 | 5589 ft | 274 kts | 34° |
| 2026-04-24 02:08 | 40.53626 | -74.11159 | 5312 ft | 273 kts | 35° |
| 2026-04-24 02:08 | 40.55077 | -74.09556 | 5040 ft | 272 kts | 35° |
| 2026-04-24 02:08 | 40.56518 | -74.07959 | 4781 ft | 269 kts | 36° |
| 2026-04-24 02:08 | 40.57918 | -74.06402 | 4505 ft | 258 kts | 36° |
| 2026-04-24 02:09 | 40.59255 | -74.04914 | 4248 ft | 244 kts | 36° |
| 2026-04-24 02:09 | 40.60515 | -74.03510 | 3994 ft | 231 kts | 35° |
| 2026-04-24 02:09 | 40.61710 | -74.02177 | 3744 ft | 218 kts | 35° |
| 2026-04-24 02:09 | 40.62847 | -74.00910 | 3516 ft | 211 kts | 35° |
| 2026-04-24 02:10 | 40.63949 | -73.99684 | 3272 ft | 205 kts | 35° |
| 2026-04-24 02:10 | 40.65023 | -73.98490 | 3037 ft | 198 kts | 35° |
| 2026-04-24 02:10 | 40.66036 | -73.97349 | 2956 ft | 187 kts | 34° |
| 2026-04-24 02:10 | 40.67082 | -73.96369 | 2867 ft | 183 kts | 28° |
| 2026-04-24 02:11 | 40.68146 | -73.95469 | 2840 ft | 181 kts | 27° |
| 2026-04-24 02:11 | 40.69203 | -73.94578 | 2769 ft | 180 kts | 27° |
| 2026-04-24 02:11 | 40.70174 | -73.93510 | 2609 ft | 184 kts | 42° |
| 2026-04-24 02:11 | 40.70981 | -73.92247 | 2433 ft | 176 kts | 43° |
| 2026-04-24 02:12 | 40.71743 | -73.90999 | 2193 ft | 175 kts | 52° |
| 2026-04-24 02:12 | 40.72179 | -73.89549 | 1959 ft | 163 kts | 68° |
| 2026-04-24 02:12 | 40.72431 | -73.88142 | 1608 ft | 153 kts | 69° |
| 2026-04-24 02:12 | 40.72644 | -73.86807 | 1414 ft | 145 kts | 71° |
| 2026-04-24 02:13 | 40.72828 | -73.85523 | 1254 ft | 141 kts | 72° |
| 2026-04-24 02:13 | 40.73082 | -73.84286 | 1026 ft | 137 kts | 52° |
| 2026-04-24 02:13 | 40.73759 | -73.83475 | 880 ft | 134 kts | 17° |
| 2026-04-24 02:13 | 40.74685 | -73.83402 | 716 ft | 138 kts | 354° |
| 2026-04-24 02:14 | 40.75657 | -73.83531 | 492 ft | 142 kts | 352° |
| 2026-04-24 02:14 | 40.76484 | -73.84157 | 336 ft | 142 kts | 306° |
| 2026-04-24 02:14 | 40.76987 | -73.85279 | 133 ft | 140 kts | 306° |
| 2026-04-24 02:14 | 40.77498 | -73.86328 | 19 ft | 127 kts | 304° |
| 2026-04-24 02:15 | 40.77883 | -73.87126 | 14 ft | 70 kts | 302° |
| 2026-04-24 02:15 | 40.78084 | -73.87549 | 16 ft | 26 kts | 303° |
| 2026-04-24 02:15 | 40.78135 | -73.87693 | 17 ft | 16 kts | 303° |
| 2026-04-24 02:15 | 40.78200 | -73.87811 | 19 ft | 14 kts | 293° |
| 2026-04-24 02:16 | 40.78141 | -73.87857 | 18 ft | 13 kts | 165° |
| 2026-04-24 02:16 | 40.78049 | -73.87829 | 17 ft | 14 kts | 167° |
| 2026-04-24 02:16 | 40.77987 | -73.87783 | 18 ft | 9 kts | 191° |
| 2026-04-24 02:16 | 40.77922 | -73.87832 | 19 ft | 12 kts | 212° |
| 2026-04-24 02:17 | 40.77851 | -73.87890 | 20 ft | 12 kts | 212° |
| 2026-04-24 02:17 | 40.77776 | -73.87952 | 21 ft | 12 kts | 212° |
| 2026-04-24 02:17 | 40.77700 | -73.88015 | 20 ft | 14 kts | 212° |
| 2026-04-24 02:17 | 40.77616 | -73.88084 | 21 ft | 15 kts | 212° |
| 2026-04-24 02:18 | 40.77525 | -73.88161 | 20 ft | 16 kts | 213° |
| 2026-04-24 02:18 | 40.77438 | -73.88232 | 20 ft | 7 kts | 209° |
| 2026-04-24 02:18 | 40.77405 | -73.88248 | 20 ft | 3 kts | 191° |
| 2026-04-24 02:18 | 40.77378 | -73.88250 | 20 ft | 4 kts | 179° |
| 2026-04-24 02:19 | 40.77360 | -73.88265 | 20 ft | 3 kts | 258° |
| 2026-04-24 02:19 | 40.77367 | -73.88299 | 19 ft | 3 kts | 288° |
| 2026-04-24 02:19 | 40.77372 | -73.88316 | 19 ft | 1 kts | 289° |
| 2026-04-24 02:19 | 40.77375 | -73.88327 | 22 ft | 2 kts | 290° |
| 2026-04-24 02:20 | 40.77376 | -73.88331 | 21 ft | 1 kts | 290° |
| 2026-04-24 02:20 | 40.77376 | -73.88332 | 21 ft | 0 kts | 290° |